Time;durP1;ratioP1;P1;durP2;ratioP2;P2;SDS_P1;SDS_P2;PMS_P1;PMS_P2;Temp;Humidity;BMP_temperature;BMP_pressure;BME280_temperature;BME280_humidity;BME280_pressure;Samples;Min_cycle;Max_cycle;Signal;HPM_P1;HPM_P2
2022/12/21 00:00:24;;;;;;;88.28;24.33;;;8.40;99.90;;;;;;5105115;28;20455;-66
2022/12/21 00:02:50;;;;;;;103.85;23.60;;;8.10;99.90;;;;;;5088387;28;20753;-66
2022/12/21 00:05:15;;;;;;;85.82;23.15;;;8.30;99.90;;;;;;5105780;28;20554;-66
2022/12/21 00:07:41;;;;;;;109.45;26.45;;;8.30;99.90;;;;;;5107386;28;20127;-66
2022/12/21 00:10:07;;;;;;;87.65;23.20;;;8.30;99.90;;;;;;5103233;28;20069;-67
2022/12/21 00:12:32;;;;;;;72.55;21.75;;;8.10;99.90;;;;;;5102063;28;20528;-67
2022/12/21 00:14:58;;;;;;;106.88;25.52;;;8.20;99.90;;;;;;5101555;28;20028;-67
2022/12/21 00:17:23;;;;;;;90.18;23.83;;;8.10;99.90;;;;;;5087382;28;20051;-67
2022/12/21 00:19:49;;;;;;;72.55;20.85;;;8.10;99.90;;;;;;5104127;28;20070;-66
2022/12/21 00:22:15;;;;;;;86.70;23.25;;;8.10;99.90;;;;;;5079810;28;20128;-66
2022/12/21 00:24:40;;;;;;;91.03;24.05;;;7.80;99.90;;;;;;5102959;28;20487;-66
2022/12/21 00:27:06;;;;;;;68.63;21.50;;;8.00;99.90;;;;;;5083053;28;20034;-66
2022/12/21 00:29:31;;;;;;;95.95;23.35;;;7.90;99.90;;;;;;5103069;28;20047;-67
2022/12/21 00:31:57;;;;;;;82.50;21.92;;;7.90;99.90;;;;;;5101991;28;20059;-67
2022/12/21 00:34:23;;;;;;;59.38;18.52;;;7.90;99.90;;;;;;5104000;28;20032;-66
2022/12/21 00:36:49;;;;;;;86.53;22.02;;;7.90;99.90;;;;;;5109396;28;20039;-66
2022/12/21 00:39:16;;;;;;;86.28;23.02;;;7.80;99.90;;;;;;5101250;28;20128;-66
2022/12/21 00:41:42;;;;;;;71.13;20.92;;;7.80;99.90;;;;;;5080374;28;20052;-66
2022/12/21 00:44:08;;;;;;;82.32;22.63;;;7.90;99.90;;;;;;5085896;28;20062;-66
2022/12/21 00:46:34;;;;;;;87.07;22.45;;;7.90;99.90;;;;;;5107773;28;20040;-66
2022/12/21 00:49:02;;;;;;;115.10;25.35;;;7.80;99.90;;;;;;5107990;28;20042;-66
2022/12/21 00:51:29;;;;;;;92.25;21.77;;;7.70;99.90;;;;;;5104148;28;20043;-66
2022/12/21 00:53:56;;;;;;;106.35;25.27;;;7.80;99.90;;;;;;5099241;28;20815;-66
2022/12/21 00:56:24;;;;;;;111.95;25.05;;;7.60;99.90;;;;;;5104235;28;20043;-66
2022/12/21 00:58:49;;;;;;;85.18;22.95;;;7.70;99.90;;;;;;5100568;28;20360;-66
2022/12/21 01:01:27;;;;;;;99.38;23.90;;;7.60;99.90;;;;;;5100493;28;20053;-66
2022/12/21 01:03:53;;;;;;;87.55;21.50;;;7.50;99.90;;;;;;5100084;28;20052;-66
2022/12/21 01:06:22;;;;;;;100.93;23.55;;;7.50;99.90;;;;;;5102804;28;20124;-66
2022/12/21 01:08:48;;;;;;;106.50;23.30;;;7.70;99.90;;;;;;5098569;28;20130;-66
2022/12/21 01:11:15;;;;;;;95.32;21.65;;;7.70;99.90;;;;;;5098568;28;20085;-66
2022/12/21 01:13:41;;;;;;;81.10;21.85;;;7.60;99.90;;;;;;5081684;28;20073;-66
2022/12/21 01:16:12;;;;;;;107.05;23.40;;;7.60;99.90;;;;;;5105804;28;20491;-66
2022/12/21 01:18:37;;;;;;;78.93;21.88;;;7.50;99.90;;;;;;5099347;28;20058;-65
2022/12/21 01:21:03;;;;;;;88.40;21.67;;;7.70;99.90;;;;;;5104982;28;20039;-66
2022/12/21 01:23:29;;;;;;;90.82;22.08;;;7.40;99.90;;;;;;5102671;28;20059;-67
2022/12/21 01:25:54;;;;;;;79.55;19.77;;;7.40;99.90;;;;;;5099353;28;20055;-66
2022/12/21 01:28:20;;;;;;;92.07;21.08;;;7.50;99.90;;;;;;5080729;28;20043;-65
2022/12/21 01:30:46;;;;;;;87.38;20.75;;;7.40;99.90;;;;;;5102712;28;20307;-66
2022/12/21 01:33:18;;;;;;;90.22;20.50;;;7.50;99.90;;;;;;5082904;28;20148;-66
2022/12/21 01:35:45;;;;;;;89.25;19.98;;;7.60;99.90;;;;;;5107806;28;20139;-66
2022/12/21 01:38:12;;;;;;;87.85;19.40;;;7.60;99.90;;;;;;5111309;28;20375;-66
2022/12/21 01:40:39;;;;;;;98.28;20.13;;;7.60;99.90;;;;;;5107323;28;20105;-66
2022/12/21 01:43:35;;;;;;;110.18;22.45;;;7.60;99.90;;;;;;5104525;28;20035;-66
2022/12/21 01:46:00;;;;;;;96.68;21.17;;;7.60;99.90;;;;;;5099197;28;20036;-66
2022/12/21 01:48:26;;;;;;;97.18;19.67;;;7.40;99.90;;;;;;5109159;28;20061;-66
2022/12/21 01:51:03;;;;;;;103.18;20.35;;;7.40;99.90;;;;;;5100528;28;20042;-66
2022/12/21 01:53:36;;;;;;;82.40;18.90;;;7.40;99.90;;;;;;5097948;28;20048;-66
2022/12/21 01:56:05;;;;;;;91.90;19.75;;;7.50;99.90;;;;;;5102590;28;20740;-66
2022/12/21 01:58:32;;;;;;;79.38;18.52;;;7.50;99.90;;;;;;5104705;28;20070;-66
2022/12/21 02:00:58;;;;;;;91.22;19.27;;;7.40;99.90;;;;;;5105009;28;20085;-66
2022/12/21 02:03:30;;;;;;;81.75;17.55;;;7.50;99.90;;;;;;5105682;28;20387;-66
2022/12/21 02:06:03;;;;;;;81.90;19.08;;;7.50;99.90;;;;;;5085121;28;20047;-66
2022/12/21 02:08:29;;;;;;;106.88;20.73;;;7.30;99.90;;;;;;5072503;28;20096;-66
2022/12/21 02:10:56;;;;;;;119.03;21.92;;;7.40;99.90;;;;;;5105710;28;20043;-66
2022/12/21 02:13:22;;;;;;;94.85;19.83;;;7.40;99.90;;;;;;5080940;28;20036;-66
2022/12/21 02:16:00;;;;;;;77.75;17.80;;;7.40;99.90;;;;;;5081781;28;20423;-67
2022/12/21 02:18:40;;;;;;;78.93;17.30;;;7.20;99.90;;;;;;5087034;28;20047;-66
2022/12/21 02:21:24;;;;;;;71.07;17.25;;;7.40;99.90;;;;;;5103956;28;20104;-66
2022/12/21 02:23:59;;;;;;;65.43;16.90;;;7.40;99.90;;;;;;5103209;28;20043;-66
2022/12/21 02:26:45;;;;;;;83.43;16.42;;;7.10;99.90;;;;;;5110006;28;20055;-66
2022/12/21 02:29:43;;;;;;;73.28;15.48;;;7.40;99.90;;;;;;5106601;28;20084;-66
2022/12/21 02:32:11;;;;;;;109.93;18.77;;;7.10;99.90;;;;;;5056939;28;20050;-66
2022/12/21 02:34:55;;;;;;;73.80;16.15;;;7.10;99.90;;;;;;5105978;28;20632;-66
2022/12/21 02:37:32;;;;;;;122.82;19.90;;;7.10;99.90;;;;;;5103639;28;21050;-65
2022/12/21 02:40:01;;;;;;;76.18;15.18;;;7.00;99.90;;;;;;5108843;28;20532;-66
2022/12/21 02:45:54;;;;;;;87.07;16.95;;;7.20;99.90;;;;;;5048410;28;20051;-66
2022/12/21 02:48:33;;;;;;;82.13;15.63;;;7.20;99.90;;;;;;5106540;28;20112;-66
2022/12/21 02:51:02;;;;;;;96.43;17.85;;;7.00;99.90;;;;;;5089648;28;20471;-66
2022/12/21 02:53:34;;;;;;;63.67;15.48;;;7.10;99.90;;;;;;5084183;28;20170;-66
2022/12/21 02:56:00;;;;;;;84.05;16.92;;;7.10;99.90;;;;;;5110664;28;20043;-67
2022/12/21 02:58:25;;;;;;;64.28;15.13;;;7.10;99.90;;;;;;5103006;28;20031;-66
2022/12/21 03:00:51;;;;;;;69.97;16.17;;;7.10;99.90;;;;;;5106905;28;20461;-66
2022/12/21 03:03:50;;;;;;;68.40;15.38;;;7.10;99.90;;;;;;5085358;28;20060;-66
2022/12/21 03:06:46;;;;;;;106.18;20.33;;;7.10;99.90;;;;;;5106684;28;20045;-66
2022/12/21 03:09:20;;;;;;;68.97;16.30;;;6.90;99.90;;;;;;5109187;28;20088;-66
2022/12/21 03:11:54;;;;;;;82.43;16.73;;;6.80;99.90;;;;;;5090443;28;20035;-66
2022/12/21 03:14:33;;;;;;;87.18;18.50;;;6.90;99.90;;;;;;5112629;28;20513;-66
2022/12/21 03:17:17;;;;;;;132.05;22.63;;;7.00;99.90;;;;;;5113004;28;20063;-65
2022/12/21 03:20:03;;;;;;;158.38;23.15;;;7.00;99.90;;;;;;5111750;28;20039;-65
2022/12/21 03:22:54;;;;;;;72.75;18.00;;;7.00;99.90;;;;;;5110154;28;20040;-66
2022/12/21 03:25:28;;;;;;;;;;;7.00;99.90;;;;;;5111845;28;20774;-66
2022/12/21 03:28:00;;;;;;;99.50;17.50;;;7.00;99.90;;;;;;5111009;28;19924;-65
2022/12/21 03:30:29;;;;;;;79.32;16.30;;;6.90;99.90;;;;;;5103470;28;20059;-65
2022/12/21 03:33:07;;;;;;;88.90;17.10;;;7.00;99.90;;;;;;5110252;28;20043;-66
2022/12/21 03:35:51;;;;;;;169.35;23.08;;;6.90;99.90;;;;;;5106389;28;20047;-65
2022/12/21 03:38:24;;;;;;;154.55;20.75;;;7.00;99.90;;;;;;5091658;28;20112;-64
2022/12/21 03:40:55;;;;;;;152.52;21.67;;;7.00;99.90;;;;;;5071877;28;20109;-66
2022/12/21 03:43:28;;;;;;;98.97;16.88;;;7.00;99.90;;;;;;5110968;28;20035;-66
2022/12/21 03:46:09;;;;;;;245.25;28.35;;;6.70;99.90;;;;;;5103115;28;20044;-66
2022/12/21 03:48:40;;;;;;;113.97;18.80;;;6.90;99.90;;;;;;5114352;28;20482;-66
2022/12/21 03:51:35;;;;;;;127.10;19.20;;;6.90;99.90;;;;;;5099966;28;20063;-66
2022/12/21 03:54:15;;;;;;;88.20;15.77;;;6.70;99.90;;;;;;5103617;28;20087;-66
2022/12/21 03:56:42;;;;;;;80.85;14.77;;;6.80;99.90;;;;;;5106860;28;20033;-66
2022/12/21 03:59:12;;;;;;;92.78;15.55;;;6.90;99.90;;;;;;5092874;28;20116;-64
2022/12/21 04:02:14;;;;;;;118.60;16.52;;;6.80;99.90;;;;;;5104234;28;20081;-66
2022/12/21 04:05:04;;;;;;;162.75;21.45;;;7.00;99.90;;;;;;5089916;28;20457;-66
2022/12/21 04:07:32;;;;;;;112.75;16.63;;;6.70;99.90;;;;;;5087459;28;20031;-67
2022/12/21 04:09:59;;;;;;;132.70;18.85;;;6.70;99.90;;;;;;5109545;28;20032;-65
2022/12/21 04:12:38;;;;;;;97.05;14.82;;;7.00;99.90;;;;;;5088823;28;20035;-66
2022/12/21 04:15:06;;;;;;;134.45;18.42;;;6.70;99.90;;;;;;5092065;28;20046;-65
2022/12/21 04:17:31;;;;;;;143.82;19.52;;;6.60;99.90;;;;;;5110249;28;20130;-66
2022/12/21 04:19:57;;;;;;;123.70;17.45;;;6.80;99.90;;;;;;5110375;28;20471;-66
2022/12/21 04:28:08;;;;;;;114.78;17.98;;;6.90;99.90;;;;;;5083649;28;20055;-65
2022/12/21 04:30:39;;;;;;;125.03;19.35;;;7.00;99.90;;;;;;5105544;28;23164;-66
2022/12/21 04:33:06;;;;;;;97.70;17.55;;;6.70;99.90;;;;;;5106524;28;20043;-66
2022/12/21 04:35:32;;;;;;;145.38;19.98;;;7.00;99.90;;;;;;5106910;28;20051;-66
2022/12/21 04:37:58;;;;;;;99.25;16.77;;;7.00;99.90;;;;;;5109092;28;20116;-66
2022/12/21 04:40:23;;;;;;;174.68;24.08;;;6.90;99.90;;;;;;5109200;28;20114;-66
2022/12/21 04:42:49;;;;;;;104.63;17.23;;;6.70;99.90;;;;;;5102460;28;20042;-66
2022/12/21 04:45:14;;;;;;;101.13;17.42;;;7.00;99.90;;;;;;5104554;28;20043;-65
2022/12/21 04:47:40;;;;;;;83.30;17.30;;;6.70;99.90;;;;;;5077773;28;20100;-66
2022/12/21 04:50:06;;;;;;;172.57;24.58;;;6.70;99.90;;;;;;5110938;28;20073;-64
2022/12/21 04:52:32;;;;;;;134.63;19.92;;;6.60;99.90;;;;;;5102607;28;20136;-66
2022/12/21 04:54:58;;;;;;;136.50;20.95;;;6.70;99.90;;;;;;5099093;28;20058;-66
2022/12/21 04:57:24;;;;;;;154.18;21.75;;;6.60;99.90;;;;;;5098774;28;20050;-66
2022/12/21 04:59:50;;;;;;;146.68;22.05;;;6.90;99.90;;;;;;5106986;28;20063;-66
2022/12/21 05:02:15;;;;;;;185.27;25.13;;;6.60;99.90;;;;;;5108047;28;20124;-66
2022/12/21 05:04:41;;;;;;;105.85;17.42;;;6.60;99.90;;;;;;5101201;28;20032;-65
2022/12/21 05:07:07;;;;;;;92.65;16.95;;;6.70;99.90;;;;;;5083238;28;20112;-65
2022/12/21 05:09:33;;;;;;;90.80;17.70;;;6.80;99.90;;;;;;5105758;28;20053;-66
2022/12/21 05:11:58;;;;;;;159.73;23.73;;;6.80;99.90;;;;;;5097206;28;20391;-66
2022/12/21 05:14:24;;;;;;;223.25;26.38;;;6.80;99.90;;;;;;5101457;28;20043;-66
2022/12/21 05:16:50;;;;;;;211.75;27.17;;;6.50;99.90;;;;;;5109435;28;20046;-66
2022/12/21 05:19:15;;;;;;;171.20;25.50;;;6.80;99.90;;;;;;5101300;28;20083;-66
2022/12/21 05:21:41;;;;;;;124.32;19.35;;;6.80;99.90;;;;;;5098203;28;20035;-66
2022/12/21 05:24:08;;;;;;;176.52;26.65;;;6.80;99.90;;;;;;5101349;28;20035;-66
2022/12/21 05:26:34;;;;;;;139.73;22.25;;;6.50;99.90;;;;;;5099525;28;20051;-65
2022/12/21 05:28:59;;;;;;;119.45;20.75;;;6.60;99.90;;;;;;5107260;28;20525;-66
2022/12/21 05:31:25;;;;;;;77.63;17.50;;;6.60;99.90;;;;;;5099148;28;20040;-66
2022/12/21 05:33:53;;;;;;;129.40;21.65;;;6.60;99.90;;;;;;5104551;28;20039;-66
2022/12/21 05:36:19;;;;;;;145.32;23.25;;;6.60;99.90;;;;;;5099559;28;20521;-65
2022/12/21 05:38:45;;;;;;;108.78;20.85;;;6.70;99.90;;;;;;5101748;28;20035;-66
2022/12/21 05:41:12;;;;;;;111.90;21.65;;;6.60;99.90;;;;;;5106073;28;20046;-66
2022/12/21 05:43:37;;;;;;;123.15;23.33;;;6.90;99.90;;;;;;5097007;28;20574;-65
2022/12/21 05:46:08;;;;;;;117.00;23.20;;;6.80;99.90;;;;;;5079935;28;20043;-66
2022/12/21 05:48:33;;;;;;;124.63;22.70;;;6.90;99.90;;;;;;5105550;28;20074;-66
2022/12/21 05:51:04;;;;;;;206.45;30.90;;;6.80;99.90;;;;;;5086618;28;20491;-66
2022/12/21 05:53:30;;;;;;;99.45;21.00;;;6.90;99.90;;;;;;5099188;28;20047;-67
2022/12/21 05:55:55;;;;;;;140.70;26.02;;;6.70;99.90;;;;;;5100210;28;20043;-66
2022/12/21 05:58:21;;;;;;;174.50;29.70;;;6.70;99.90;;;;;;5097751;28;20126;-66
2022/12/21 06:00:46;;;;;;;192.77;30.73;;;7.00;99.90;;;;;;5100340;28;20034;-66
2022/12/21 06:03:12;;;;;;;203.90;29.70;;;6.90;99.90;;;;;;5079263;28;20047;-66
2022/12/21 06:05:38;;;;;;;117.90;24.08;;;6.70;99.90;;;;;;5098013;28;20036;-66
2022/12/21 06:08:03;;;;;;;142.55;26.02;;;7.00;99.90;;;;;;5081682;28;20047;-66
2022/12/21 06:10:29;;;;;;;129.93;24.42;;;6.70;99.90;;;;;;5104236;28;20082;-66
2022/12/21 06:12:55;;;;;;;148.50;27.05;;;6.70;99.90;;;;;;5098983;28;20084;-66
2022/12/21 06:15:21;;;;;;;143.90;27.98;;;6.70;99.90;;;;;;5083345;28;20134;-65
2022/12/21 06:17:46;;;;;;;122.10;25.25;;;6.70;99.90;;;;;;5080433;28;23640;-66
2022/12/21 06:20:12;;;;;;;109.97;24.45;;;6.70;99.90;;;;;;5094970;28;20097;-66
2022/12/21 06:22:40;;;;;;;160.82;28.30;;;7.00;99.90;;;;;;5080237;28;20113;-66
2022/12/21 06:25:06;;;;;;;181.30;31.98;;;7.00;99.90;;;;;;5101952;28;20040;-65
2022/12/21 06:27:32;;;;;;;115.30;25.92;;;7.00;99.90;;;;;;5104171;28;20028;-66
2022/12/21 06:29:57;;;;;;;248.18;36.50;;;6.80;99.90;;;;;;5102407;28;20042;-66
2022/12/21 06:32:23;;;;;;;147.27;27.70;;;6.90;99.90;;;;;;5081711;28;20126;-66
2022/12/21 06:34:49;;;;;;;190.18;34.05;;;7.10;99.90;;;;;;5105595;28;20123;-66
2022/12/21 06:37:14;;;;;;;124.32;27.15;;;6.90;99.90;;;;;;5103017;28;20047;-66
2022/12/21 06:39:40;;;;;;;148.00;29.95;;;7.10;99.90;;;;;;5107821;28;20084;-66
2022/12/21 06:42:05;;;;;;;131.40;28.13;;;6.80;99.90;;;;;;5103430;28;20498;-66
2022/12/21 06:44:31;;;;;;;138.80;29.35;;;6.90;99.90;;;;;;5101810;28;20062;-66
2022/12/21 06:46:56;;;;;;;184.23;33.75;;;7.10;99.90;;;;;;5099940;28;20048;-66
2022/12/21 06:49:22;;;;;;;165.30;30.67;;;7.10;99.90;;;;;;5103303;28;20047;-66
2022/12/21 06:51:47;;;;;;;127.28;28.50;;;7.20;99.90;;;;;;5104437;28;20368;-66
2022/12/21 06:54:13;;;;;;;121.70;27.52;;;7.20;99.90;;;;;;5102208;28;20089;-66
2022/12/21 06:56:38;;;;;;;151.82;31.52;;;7.20;99.90;;;;;;5110052;28;20024;-66
2022/12/21 06:59:04;;;;;;;162.20;31.55;;;7.00;99.90;;;;;;5088433;28;20099;-66
2022/12/21 07:01:32;;;;;;;205.70;33.85;;;7.20;99.90;;;;;;5107400;28;20122;-66
2022/12/21 07:03:59;;;;;;;143.82;31.35;;;7.20;99.90;;;;;;5102300;28;20123;-66
2022/12/21 07:06:27;;;;;;;140.73;29.17;;;6.90;99.90;;;;;;5094206;28;20474;-65
2022/12/21 07:08:53;;;;;;;156.93;31.55;;;7.10;99.90;;;;;;5108484;28;20036;-66
2022/12/21 07:11:22;;;;;;;140.43;30.52;;;6.80;99.90;;;;;;5112895;28;20032;-66
2022/12/21 07:13:49;;;;;;;133.23;30.10;;;6.90;99.90;;;;;;5081959;28;20503;-66
2022/12/21 07:16:15;;;;;;;144.75;31.42;;;7.10;99.90;;;;;;5111140;28;20043;-65
2022/12/21 07:18:42;;;;;;;154.05;30.85;;;6.90;99.90;;;;;;5099688;28;20035;-66
2022/12/21 07:21:12;;;;;;;159.25;32.10;;;7.00;99.90;;;;;;5086060;28;20130;-66
2022/12/21 07:23:39;;;;;;;132.15;29.42;;;7.00;99.90;;;;;;5108397;28;20031;-66
2022/12/21 07:26:15;;;;;;;147.40;30.83;;;6.90;99.90;;;;;;5112820;28;20039;-66
2022/12/21 07:28:43;;;;;;;137.50;29.77;;;6.90;99.90;;;;;;5111469;28;20039;-66
2022/12/21 07:31:11;;;;;;;180.40;33.05;;;7.10;99.90;;;;;;5112438;28;20159;-67
2022/12/21 07:33:38;;;;;;;123.57;28.92;;;7.20;99.90;;;;;;5085327;28;20036;-66
2022/12/21 07:36:05;;;;;;;143.18;29.67;;;7.10;99.90;;;;;;5094862;28;20114;-66
2022/12/21 07:38:33;;;;;;;145.77;30.77;;;7.00;99.90;;;;;;5095387;28;20035;-64
2022/12/21 07:41:01;;;;;;;130.30;28.63;;;7.00;99.90;;;;;;5093660;28;20032;-65
2022/12/21 07:43:27;;;;;;;151.02;32.28;;;7.00;99.90;;;;;;5102520;28;20047;-65
2022/12/21 07:45:53;;;;;;;140.98;29.90;;;7.20;99.90;;;;;;5103291;28;20392;-66
2022/12/21 07:48:18;;;;;;;130.25;28.60;;;7.20;99.90;;;;;;5096557;28;20054;-66
2022/12/21 07:50:49;;;;;;;168.10;32.10;;;7.10;99.90;;;;;;5073721;28;20087;-65
2022/12/21 07:53:16;;;;;;;139.35;30.00;;;7.00;99.90;;;;;;5082959;28;20055;-67
2022/12/21 07:55:41;;;;;;;126.03;28.17;;;7.20;99.90;;;;;;5085406;28;20048;-66
2022/12/21 07:58:08;;;;;;;130.48;28.08;;;7.20;99.90;;;;;;5096717;28;20034;-66
2022/12/21 08:00:34;;;;;;;139.05;29.27;;;6.90;99.90;;;;;;5108239;28;20210;-66
2022/12/21 08:03:00;;;;;;;129.10;27.50;;;7.00;99.90;;;;;;5111022;28;20096;-66
2022/12/21 08:05:26;;;;;;;115.85;27.65;;;6.90;99.90;;;;;;5105233;28;20035;-66
2022/12/21 08:07:52;;;;;;;126.72;27.13;;;7.20;99.90;;;;;;5100112;28;20039;-66
2022/12/21 08:10:18;;;;;;;125.22;27.15;;;7.20;99.90;;;;;;5102549;28;20477;-66
2022/12/21 08:12:43;;;;;;;147.07;29.65;;;7.00;99.90;;;;;;5095704;28;20142;-66
2022/12/21 08:15:09;;;;;;;120.53;26.48;;;7.10;99.90;;;;;;5086360;28;20071;-67
2022/12/21 08:17:35;;;;;;;141.98;28.85;;;6.90;99.90;;;;;;5100320;28;20079;-65
2022/12/21 08:20:02;;;;;;;118.40;27.08;;;7.00;99.90;;;;;;5094626;28;20047;-65
2022/12/21 08:22:28;;;;;;;123.38;25.45;;;6.90;99.90;;;;;;5078018;28;20049;-66
2022/12/21 08:24:54;;;;;;;117.38;25.75;;;6.90;99.90;;;;;;5095759;28;20036;-65
2022/12/21 08:27:19;;;;;;;152.10;30.85;;;7.10;99.90;;;;;;5081695;28;20042;-66
2022/12/21 08:29:45;;;;;;;124.50;28.35;;;7.10;99.90;;;;;;5100578;28;20130;-65
2022/12/21 08:32:11;;;;;;;154.02;30.77;;;7.20;99.90;;;;;;5100171;28;20455;-65
2022/12/21 08:34:36;;;;;;;200.30;32.05;;;7.10;99.90;;;;;;5096227;28;20062;-66
2022/12/21 08:37:02;;;;;;;161.38;29.85;;;6.90;99.90;;;;;;5091905;28;20101;-66
2022/12/21 08:39:27;;;;;;;151.55;31.40;;;7.00;99.90;;;;;;5101699;28;20040;-66
2022/12/21 08:41:53;;;;;;;111.45;26.25;;;6.90;99.90;;;;;;5103810;28;20043;-66
2022/12/21 08:44:19;;;;;;;128.45;28.85;;;7.20;99.90;;;;;;5089907;28;20455;-66
2022/12/21 08:46:44;;;;;;;128.40;28.48;;;7.10;99.90;;;;;;5064814;28;20405;-66
2022/12/21 08:49:11;;;;;;;113.28;28.35;;;7.10;99.90;;;;;;5106194;28;20032;-66
2022/12/21 08:51:37;;;;;;;136.05;28.73;;;6.80;99.90;;;;;;5103507;28;20085;-64
2022/12/21 08:54:04;;;;;;;130.82;27.23;;;6.90;99.90;;;;;;5076855;28;20052;-66
2022/12/21 08:56:30;;;;;;;129.70;28.23;;;7.10;99.90;;;;;;5092999;28;20081;-66
2022/12/21 08:59:03;;;;;;;102.97;26.08;;;6.90;99.90;;;;;;5084374;28;20039;-65
2022/12/21 09:01:30;;;;;;;143.38;30.13;;;6.90;99.90;;;;;;5104313;28;20092;-66
2022/12/21 09:03:56;;;;;;;123.15;28.17;;;6.90;99.90;;;;;;5109748;28;20159;-66
2022/12/21 09:06:22;;;;;;;120.68;27.20;;;7.00;99.90;;;;;;5097263;28;20036;-65
2022/12/21 09:08:47;;;;;;;114.28;26.05;;;7.00;99.90;;;;;;5108349;28;20034;-65
2022/12/21 09:11:15;;;;;;;117.93;26.15;;;7.00;99.90;;;;;;5091425;28;20047;-65
2022/12/21 09:13:41;;;;;;;103.80;27.35;;;7.10;99.90;;;;;;5088283;28;20172;-66
2022/12/21 09:16:15;;;;;;;122.97;28.67;;;7.10;99.90;;;;;;5104447;28;20185;-66
2022/12/21 09:18:41;;;;;;;110.63;27.58;;;7.30;99.90;;;;;;5088233;28;20054;-67
2022/12/21 09:21:07;;;;;;;130.45;30.13;;;7.20;99.90;;;;;;5105941;28;20031;-67
2022/12/21 09:23:33;;;;;;;113.85;27.05;;;7.20;99.90;;;;;;5110927;28;20039;-65
2022/12/21 09:25:59;;;;;;;116.38;30.58;;;7.30;99.90;;;;;;5110160;28;20584;-66
2022/12/21 09:28:24;;;;;;;106.50;29.95;;;7.50;99.90;;;;;;5109958;28;20081;-66
2022/12/21 09:30:50;;;;;;;112.22;29.15;;;7.40;99.90;;;;;;5111800;28;20044;-65
2022/12/21 09:33:16;;;;;;;120.90;30.77;;;7.50;99.90;;;;;;5112674;28;20039;-66
2022/12/21 09:35:41;;;;;;;114.05;30.42;;;7.50;99.90;;;;;;5111506;28;20521;-66
2022/12/21 09:38:07;;;;;;;110.45;30.80;;;7.50;99.90;;;;;;5111079;28;20031;-66
2022/12/21 09:40:33;;;;;;;100.10;26.98;;;7.50;99.90;;;;;;5092414;28;20035;-66
2022/12/21 09:43:23;;;;;;;112.03;28.92;;;7.40;99.90;;;;;;5111703;28;20070;-65
2022/12/21 09:46:11;;;;;;;123.07;30.23;;;7.50;99.90;;;;;;5111178;28;20122;-65
2022/12/21 09:48:49;;;;;;;108.35;29.33;;;7.50;99.90;;;;;;5074442;28;20114;-66
2022/12/21 09:51:20;;;;;;;109.15;29.50;;;7.50;99.90;;;;;;5103648;28;20517;-66
2022/12/21 09:53:58;;;;;;;112.70;30.27;;;7.60;99.90;;;;;;5091237;28;20048;-66
2022/12/21 09:56:25;;;;;;;112.70;28.58;;;7.50;99.90;;;;;;5086480;28;20039;-66
2022/12/21 09:58:53;;;;;;;103.70;29.45;;;7.60;99.90;;;;;;5110645;28;20040;-66
2022/12/21 10:01:27;;;;;;;99.32;27.20;;;7.80;99.90;;;;;;5111690;28;20470;-66
2022/12/21 10:04:46;;;;;;;100.65;28.88;;;7.80;99.90;;;;;;5111385;28;20090;-64
2022/12/21 10:07:12;;;;;;;95.68;26.27;;;7.60;99.90;;;;;;5047670;28;20036;-65
2022/12/21 10:10:06;;;;;;;109.35;29.25;;;7.60;99.90;;;;;;5048958;28;20043;-65
2022/12/21 10:12:58;;;;;;;105.05;28.08;;;7.50;99.90;;;;;;5090372;28;20559;-66
2022/12/21 10:15:40;;;;;;;81.97;24.75;;;7.50;99.90;;;;;;5111188;28;20040;-67
2022/12/21 10:18:22;;;;;;;87.57;27.48;;;7.50;99.90;;;;;;5107000;28;20083;-65
2022/12/21 10:21:20;;;;;;;88.72;27.13;;;7.60;99.90;;;;;;5111401;28;20039;-64
2022/12/21 10:23:49;;;;;;;99.20;27.30;;;7.60;99.90;;;;;;5109557;28;20127;-65
2022/12/21 10:26:18;;;;;;;94.28;27.38;;;7.60;99.90;;;;;;5111244;28;20036;-65
2022/12/21 10:29:00;;;;;;;106.93;28.73;;;7.50;99.90;;;;;;5109574;28;20062;-66
2022/12/21 10:31:40;;;;;;;84.47;26.27;;;7.60;99.90;;;;;;5112833;28;20442;-64
2022/12/21 10:34:24;;;;;;;94.90;27.38;;;7.50;99.90;;;;;;5092734;28;20047;-66
2022/12/21 10:36:55;;;;;;;90.63;27.17;;;7.50;99.90;;;;;;5109286;28;20036;-65
2022/12/21 10:39:21;;;;;;;88.93;25.83;;;7.50;99.90;;;;;;5103921;28;20089;-65
2022/12/21 10:41:55;;;;;;;87.70;26.67;;;7.50;99.90;;;;;;5112004;28;20028;-64
2022/12/21 10:44:21;;;;;;;95.65;27.77;;;7.40;99.90;;;;;;5111688;28;20048;-67
2022/12/21 10:46:47;;;;;;;83.75;23.40;;;7.50;99.90;;;;;;5116892;28;20444;-65
2022/12/21 10:49:18;;;;;;;84.80;24.85;;;7.40;99.90;;;;;;5092931;28;20044;-66
2022/12/21 10:51:44;;;;;;;83.70;24.45;;;7.50;99.90;;;;;;5109688;28;20460;-65
2022/12/21 10:54:10;;;;;;;82.18;26.40;;;7.50;99.90;;;;;;5114396;28;20035;-64
2022/12/21 10:56:48;;;;;;;80.45;24.30;;;7.50;99.90;;;;;;5114025;28;20078;-64
2022/12/21 10:59:38;;;;;;;76.25;23.48;;;7.60;99.90;;;;;;5106117;28;20038;-66
2022/12/21 11:02:05;;;;;;;66.93;22.65;;;7.60;99.90;;;;;;5096115;28;20579;-64
2022/12/21 11:04:32;;;;;;;65.72;21.75;;;7.60;99.90;;;;;;5095101;28;20040;-64
2022/12/21 11:07:27;;;;;;;66.80;21.77;;;7.60;99.90;;;;;;5107503;28;20047;-65
2022/12/21 11:10:02;;;;;;;61.33;20.70;;;7.60;99.90;;;;;;5080306;28;20055;-64
2022/12/21 11:12:27;;;;;;;59.63;19.98;;;7.60;99.90;;;;;;5107835;28;20054;-65
2022/12/21 11:14:55;;;;;;;56.70;19.02;;;7.50;99.90;;;;;;5094123;28;20036;-66
2022/12/21 11:17:25;;;;;;;61.95;20.55;;;7.50;99.90;;;;;;5076445;28;20060;-65
2022/12/21 11:19:57;;;;;;;64.97;20.35;;;7.60;99.90;;;;;;5096140;28;20118;-66
2022/12/21 11:22:28;;;;;;;57.97;20.05;;;7.50;99.90;;;;;;5091360;28;20051;-66
2022/12/21 11:24:57;;;;;;;68.90;21.83;;;7.60;99.90;;;;;;5090395;28;20047;-65
2022/12/21 11:27:31;;;;;;;59.33;19.77;;;7.60;99.90;;;;;;5081099;28;20040;-66
2022/12/21 11:29:59;;;;;;;73.18;21.73;;;7.60;99.90;;;;;;5088687;28;20421;-65
2022/12/21 11:32:26;;;;;;;68.93;21.25;;;7.60;99.90;;;;;;5081182;28;20129;-66
2022/12/21 11:34:53;;;;;;;69.72;21.73;;;7.70;99.90;;;;;;5088999;28;20076;-66
2022/12/21 11:37:25;;;;;;;69.95;21.67;;;7.70;99.90;;;;;;5072996;28;20138;-64
2022/12/21 11:39:51;;;;;;;71.47;22.50;;;7.70;99.90;;;;;;5079561;28;20073;-65
2022/12/21 11:42:19;;;;;;;67.38;22.35;;;7.80;99.90;;;;;;5092513;28;20078;-64
2022/12/21 11:44:45;;;;;;;67.25;21.80;;;7.70;99.90;;;;;;5092336;28;20392;-65
2022/12/21 11:47:19;;;;;;;68.78;22.58;;;7.70;99.90;;;;;;5090864;28;20043;-66
2022/12/21 11:50:12;;;;;;;66.10;22.27;;;7.70;99.90;;;;;;5088066;28;20044;-65
2022/12/21 11:52:53;;;;;;;70.95;21.30;;;7.70;99.90;;;;;;5092441;28;20083;-65
2022/12/21 11:55:34;;;;;;;67.47;21.13;;;7.70;99.90;;;;;;5088676;28;20051;-63
2022/12/21 11:58:19;;;;;;;70.72;20.65;;;7.70;99.90;;;;;;5086472;28;20089;-65
2022/12/21 12:01:25;;;;;;;61.22;20.35;;;7.80;99.90;;;;;;5089069;28;20040;-65
2022/12/21 12:04:03;;;;;;;75.22;22.23;;;7.80;99.90;;;;;;5089126;28;20041;-63
2022/12/21 12:06:49;;;;;;;65.07;20.88;;;7.80;99.90;;;;;;5066901;28;20457;-64
2022/12/21 12:09:36;;;;;;;64.05;19.27;;;8.00;99.90;;;;;;5075154;28;20036;-66
2022/12/21 12:12:38;;;;;;;62.72;19.48;;;8.00;99.90;;;;;;5084762;28;20040;-65
2022/12/21 12:15:31;;;;;;;65.03;21.33;;;8.00;99.90;;;;;;5074314;28;20093;-65
2022/12/21 12:18:43;;;;;;;66.85;20.77;;;8.00;99.90;;;;;;5082267;28;20055;-65
2022/12/21 12:21:46;;;;;;;65.75;20.27;;;8.10;99.90;;;;;;4987527;28;20041;-65
2022/12/21 12:24:39;;;;;;;65.90;21.70;;;8.00;99.90;;;;;;5009540;28;20952;-65
2022/12/21 12:27:34;;;;;;;60.47;20.05;;;8.00;99.90;;;;;;5082355;28;20115;-65
2022/12/21 12:30:13;;;;;;;67.32;20.23;;;8.00;99.90;;;;;;5089642;28;20047;-64
2022/12/21 12:33:04;;;;;;;67.00;20.30;;;8.00;99.90;;;;;;5086166;28;20036;-66
2022/12/21 12:35:51;;;;;;;65.25;20.55;;;8.10;99.90;;;;;;5078250;28;20511;-65
2022/12/21 12:38:47;;;;;;;59.35;20.15;;;8.00;99.90;;;;;;5088151;28;20082;-65
2022/12/21 12:41:23;;;;;;;61.40;19.45;;;8.10;99.90;;;;;;5086284;28;20036;-65
2022/12/21 12:44:09;;;;;;;60.53;20.05;;;8.00;99.90;;;;;;5083245;28;20039;-65
2022/12/21 12:46:53;;;;;;;56.90;19.92;;;8.00;99.90;;;;;;5079761;28;20040;-65
2022/12/21 12:49:44;;;;;;;65.18;20.25;;;8.00;99.90;;;;;;5071932;28;20045;-66
2022/12/21 12:52:37;;;;;;;57.85;19.63;;;8.00;99.90;;;;;;5079780;28;20121;-65
2022/12/21 12:55:27;;;;;;;60.88;20.85;;;7.90;99.90;;;;;;5089292;28;20123;-65
2022/12/21 12:58:16;;;;;;;62.50;21.97;;;7.90;99.90;;;;;;5091958;28;20036;-65
2022/12/21 13:00:53;;;;;;;63.38;20.52;;;7.80;99.90;;;;;;5089070;28;20036;-65